createdAt,value
2018-09-16T00:00:40.262Z,1025.5
2018-09-16T00:01:40.695Z,1025.47
2018-09-16T00:02:40.247Z,1025.46
2018-09-16T00:03:40.624Z,1025.41
2018-09-16T00:04:40.132Z,1025.39
2018-09-16T00:05:40.270Z,1025.42
2018-09-16T00:06:40.539Z,1025.42
2018-09-16T00:07:40.297Z,1025.41
2018-09-16T00:08:40.215Z,1025.41
2018-09-16T00:09:40.405Z,1025.38
2018-09-16T00:10:40.164Z,1025.4
2018-09-16T00:11:40.665Z,1025.41
2018-09-16T00:12:40.093Z,1025.45
2018-09-16T00:13:40.743Z,1025.42
2018-09-16T00:14:40.375Z,1025.43
2018-09-16T00:15:40.314Z,1025.41
2018-09-16T00:16:40.745Z,1025.48
2018-09-16T00:17:40.297Z,1025.43
2018-09-16T00:18:40.278Z,1025.37
2018-09-16T00:19:40.040Z,1025.4
2018-09-16T00:20:40.314Z,1025.39
2018-09-16T00:21:40.359Z,1025.4
2018-09-16T00:22:40.298Z,1025.35
2018-09-16T00:23:40.324Z,1025.39
2018-09-16T00:24:40.270Z,1025.35
2018-09-16T00:25:40.204Z,1025.37
2018-09-16T00:26:40.423Z,1025.43
2018-09-16T00:27:40.293Z,1025.4
2018-09-16T00:28:40.304Z,1025.38
2018-09-16T00:29:40.465Z,1025.42
2018-09-16T00:30:40.293Z,1025.4
2018-09-16T00:31:40.644Z,1025.4
2018-09-16T00:32:40.896Z,1025.38
2018-09-16T00:33:40.320Z,1025.37
2018-09-16T00:34:40.210Z,1025.37
2018-09-16T00:35:40.168Z,1025.39
2018-09-16T00:36:40.245Z,1025.39
2018-09-16T00:37:40.307Z,1025.36
2018-09-16T00:38:40.244Z,1025.33
2018-09-16T00:39:40.283Z,1025.33
2018-09-16T00:40:40.236Z,1025.34
2018-09-16T00:41:40.436Z,1025.29
2018-09-16T00:42:40.138Z,1025.31
2018-09-16T00:43:40.068Z,1025.32
2018-09-16T00:44:40.426Z,1025.26
2018-09-16T00:45:40.152Z,1025.23
2018-09-16T00:46:40.241Z,1025.15
2018-09-16T00:47:40.370Z,1025.13
2018-09-16T00:48:40.179Z,1025.19
2018-09-16T00:49:40.289Z,1025.15
2018-09-16T00:50:40.246Z,1025.15
2018-09-16T00:51:40.175Z,1025.11
2018-09-16T00:52:40.195Z,1025.17
2018-09-16T00:53:40.190Z,1025.14
2018-09-16T00:54:40.222Z,1025.13
2018-09-16T00:55:40.004Z,1025.12
2018-09-16T00:56:40.233Z,1025.11
2018-09-16T00:57:40.250Z,1025.13
2018-09-16T00:58:40.249Z,1025.11
2018-09-16T00:59:40.244Z,1025.12
2018-09-16T01:00:40.178Z,1025.08
2018-09-16T01:01:40.014Z,1025.09
2018-09-16T01:02:40.206Z,1025.11
2018-09-16T01:03:40.155Z,1025.11
2018-09-16T01:04:40.015Z,1025.12
2018-09-16T01:05:40.124Z,1025.06
2018-09-16T01:06:40.328Z,1025.11
2018-09-16T01:07:40.305Z,1025.15
2018-09-16T01:08:40.210Z,1025.08
2018-09-16T01:09:40.321Z,1025.07
2018-09-16T01:10:40.306Z,1025.09
2018-09-16T01:11:40.285Z,1025.08
2018-09-16T01:12:40.243Z,1025.07
2018-09-16T01:13:40.380Z,1025.09
2018-09-16T01:14:40.256Z,1025.11
2018-09-16T01:15:40.234Z,1025.04
2018-09-16T01:16:40.420Z,1025.04
2018-09-16T01:17:40.197Z,1025.02
2018-09-16T01:18:40.051Z,1024.95
2018-09-16T01:19:40.562Z,1024.94
2018-09-16T01:20:40.322Z,1024.93
2018-09-16T01:21:40.074Z,1024.91
2018-09-16T01:22:40.285Z,1024.93
2018-09-16T01:23:40.164Z,1024.91
2018-09-16T01:24:40.094Z,1024.87
2018-09-16T01:25:40.062Z,1024.83
2018-09-16T01:26:40.036Z,1024.81
2018-09-16T01:27:40.478Z,1024.84
2018-09-16T01:28:40.328Z,1024.81
2018-09-16T01:29:40.324Z,1024.8
2018-09-16T01:30:40.308Z,1024.76
2018-09-16T01:31:40.320Z,1024.72
2018-09-16T01:32:40.171Z,1024.77
2018-09-16T01:33:40.088Z,1024.73
2018-09-16T01:34:40.267Z,1024.66
2018-09-16T01:35:40.138Z,1024.71
2018-09-16T01:36:40.179Z,1024.66
2018-09-16T01:37:40.476Z,1024.67
2018-09-16T01:38:40.190Z,1024.64
2018-09-16T01:39:40.303Z,1024.6
2018-09-16T01:40:40.096Z,1024.63
2018-09-16T01:41:40.225Z,1024.58
2018-09-16T01:42:40.236Z,1024.6
2018-09-16T01:43:40.010Z,1024.61
2018-09-16T01:44:40.296Z,1024.61
2018-09-16T01:45:40.058Z,1024.56
2018-09-16T01:46:40.565Z,1024.59
2018-09-16T01:47:40.413Z,1024.56
2018-09-16T01:48:40.374Z,1024.62
2018-09-16T01:49:40.332Z,1024.55
2018-09-16T01:50:40.452Z,1024.56
2018-09-16T01:51:40.208Z,1024.53
2018-09-16T01:52:40.692Z,1024.55
2018-09-16T01:53:40.114Z,1024.51
2018-09-16T01:54:40.374Z,1024.49
2018-09-16T01:55:40.228Z,1024.5
2018-09-16T01:56:40.382Z,1024.49
2018-09-16T01:57:40.176Z,1024.5
2018-09-16T01:58:40.351Z,1024.49
2018-09-16T01:59:40.183Z,1024.46
2018-09-16T02:00:40.194Z,1024.44
2018-09-16T02:01:40.168Z,1024.37
2018-09-16T02:02:40.106Z,1024.33
2018-09-16T02:03:40.180Z,1024.37
2018-09-16T02:04:40.251Z,1024.4
2018-09-16T02:05:40.317Z,1024.41
2018-09-16T02:06:40.201Z,1024.41
2018-09-16T02:07:40.015Z,1024.43
2018-09-16T02:08:40.255Z,1024.44
2018-09-16T02:09:40.332Z,1024.42
2018-09-16T02:10:40.243Z,1024.45
2018-09-16T02:11:40.212Z,1024.42
2018-09-16T02:12:40.099Z,1024.46
2018-09-16T02:13:40.131Z,1024.48
2018-09-16T02:14:40.254Z,1024.54
2018-09-16T02:15:40.131Z,1024.5
2018-09-16T02:16:40.209Z,1024.51
2018-09-16T02:17:40.310Z,1024.57
2018-09-16T02:18:40.257Z,1024.63
2018-09-16T02:19:40.107Z,1024.59
2018-09-16T02:20:40.466Z,1024.58
2018-09-16T02:21:40.325Z,1024.57
2018-09-16T02:22:40.342Z,1024.56
2018-09-16T02:23:40.323Z,1024.57
2018-09-16T02:24:40.230Z,1024.49
2018-09-16T02:25:40.360Z,1024.53
2018-09-16T02:26:40.291Z,1024.52
2018-09-16T02:27:40.164Z,1024.51
2018-09-16T02:28:40.089Z,1024.49
2018-09-16T02:29:40.303Z,1024.46
2018-09-16T02:30:40.414Z,1024.49
2018-09-16T02:31:40.213Z,1024.43
2018-09-16T02:32:40.463Z,1024.46
2018-09-16T02:33:40.224Z,1024.46
2018-09-16T02:34:40.164Z,1024.43
2018-09-16T02:35:40.176Z,1024.39
2018-09-16T02:36:40.204Z,1024.39
2018-09-16T02:37:40.147Z,1024.34
2018-09-16T02:38:40.258Z,1024.34
2018-09-16T02:39:40.198Z,1024.32
2018-09-16T02:40:40.313Z,1024.29
2018-09-16T02:41:40.084Z,1024.28
2018-09-16T02:42:40.189Z,1024.28
2018-09-16T02:43:40.494Z,1024.32
2018-09-16T02:44:40.259Z,1024.35
2018-09-16T02:45:40.237Z,1024.37
2018-09-16T02:46:40.142Z,1024.37
2018-09-16T02:47:40.123Z,1024.39
2018-09-16T02:48:40.192Z,1024.38
2018-09-16T02:49:40.420Z,1024.31
2018-09-16T02:50:40.470Z,1024.36
2018-09-16T02:51:40.040Z,1024.39
2018-09-16T02:52:40.410Z,1024.34
2018-09-16T02:53:40.223Z,1024.35
2018-09-16T02:54:40.225Z,1024.36
2018-09-16T02:55:40.658Z,1024.37
2018-09-16T02:56:40.110Z,1024.4
2018-09-16T02:57:40.185Z,1024.36
2018-09-16T02:58:40.228Z,1024.39
2018-09-16T02:59:40.102Z,1024.38
2018-09-16T03:00:40.472Z,1024.36
2018-09-16T03:01:40.099Z,1024.37
2018-09-16T03:02:40.289Z,1024.39
2018-09-16T03:03:40.181Z,1024.39
2018-09-16T03:04:40.092Z,1024.36
2018-09-16T03:05:40.326Z,1024.37
2018-09-16T03:06:40.290Z,1024.37
2018-09-16T03:07:40.285Z,1024.39
2018-09-16T03:08:40.175Z,1024.42
2018-09-16T03:09:40.215Z,1024.41
2018-09-16T03:10:40.256Z,1024.41
2018-09-16T03:11:40.455Z,1024.4
2018-09-16T03:12:40.244Z,1024.39
2018-09-16T03:13:40.092Z,1024.4
2018-09-16T03:14:40.461Z,1024.38
2018-09-16T03:15:40.287Z,1024.4
2018-09-16T03:16:40.292Z,1024.36
2018-09-16T03:17:40.384Z,1024.37
2018-09-16T03:18:40.350Z,1024.33
2018-09-16T03:19:40.030Z,1024.3
2018-09-16T03:20:40.367Z,1024.3
2018-09-16T03:21:40.405Z,1024.29
2018-09-16T03:22:40.155Z,1024.3
2018-09-16T03:23:40.168Z,1024.33
2018-09-16T03:24:40.183Z,1024.33
2018-09-16T03:25:39.976Z,1024.29
2018-09-16T03:26:40.082Z,1024.31
2018-09-16T03:27:40.250Z,1024.26
2018-09-16T03:28:40.152Z,1024.29
2018-09-16T03:29:40.279Z,1024.24
2018-09-16T03:30:40.291Z,1024.24
2018-09-16T03:31:40.046Z,1024.27
2018-09-16T03:32:40.298Z,1024.26
2018-09-16T03:33:40.191Z,1024.26
2018-09-16T03:34:40.114Z,1024.27
2018-09-16T03:35:40.144Z,1024.25
2018-09-16T03:36:40.213Z,1024.28
2018-09-16T03:37:40.168Z,1024.29
2018-09-16T03:38:40.058Z,1024.29
2018-09-16T03:39:40.145Z,1024.25
2018-09-16T03:40:40.622Z,1024.26
2018-09-16T03:41:40.341Z,1024.27
2018-09-16T03:42:40.281Z,1024.25
2018-09-16T03:43:40.184Z,1024.31
2018-09-16T03:44:40.095Z,1024.3
2018-09-16T03:45:40.320Z,1024.3
2018-09-16T03:46:40.431Z,1024.34
2018-09-16T03:47:40.270Z,1024.36
2018-09-16T03:48:40.233Z,1024.33
2018-09-16T03:49:40.247Z,1024.33
2018-09-16T03:50:40.395Z,1024.34
2018-09-16T03:51:40.632Z,1024.32
2018-09-16T03:52:40.319Z,1024.31
2018-09-16T03:53:40.151Z,1024.38
2018-09-16T03:54:40.301Z,1024.4
2018-09-16T03:55:40.183Z,1024.36
2018-09-16T03:56:40.367Z,1024.43
2018-09-16T03:57:40.130Z,1024.38
2018-09-16T03:58:40.187Z,1024.39
2018-09-16T03:59:39.974Z,1024.36
2018-09-16T04:00:40.385Z,1024.4
2018-09-16T04:01:40.152Z,1024.39
2018-09-16T04:02:40.122Z,1024.38
2018-09-16T04:03:40.222Z,1024.33
2018-09-16T04:04:40.062Z,1024.39
2018-09-16T04:05:40.285Z,1024.37
2018-09-16T04:06:40.319Z,1024.36
2018-09-16T04:07:40.111Z,1024.37
2018-09-16T04:08:40.222Z,1024.39
2018-09-16T04:09:40.089Z,1024.37
2018-09-16T04:10:40.284Z,1024.35
2018-09-16T04:11:40.219Z,1024.38
2018-09-16T04:12:40.249Z,1024.37
2018-09-16T04:13:40.181Z,1024.35
2018-09-16T04:14:40.021Z,1024.35
2018-09-16T04:15:40.407Z,1024.32
2018-09-16T04:16:40.520Z,1024.33
2018-09-16T04:17:40.232Z,1024.31
2018-09-16T04:18:40.204Z,1024.33
2018-09-16T04:19:40.406Z,1024.31
2018-09-16T04:20:40.269Z,1024.31
2018-09-16T04:21:40.053Z,1024.31
2018-09-16T04:22:40.054Z,1024.28
2018-09-16T04:23:40.227Z,1024.29
2018-09-16T04:24:40.167Z,1024.29
2018-09-16T04:25:40.224Z,1024.29
2018-09-16T04:26:40.247Z,1024.27
2018-09-16T04:27:40.450Z,1024.28
2018-09-16T04:28:40.124Z,1024.26
2018-09-16T04:29:40.216Z,1024.26
2018-09-16T04:30:40.214Z,1024.22
2018-09-16T04:31:40.059Z,1024.19
2018-09-16T04:32:40.231Z,1024.2
2018-09-16T04:33:40.144Z,1024.19
2018-09-16T04:34:40.012Z,1024.2
2018-09-16T04:35:40.146Z,1024.16
2018-09-16T04:36:40.274Z,1024.16
2018-09-16T04:37:40.135Z,1024.16
2018-09-16T04:38:40.262Z,1024.17
2018-09-16T04:39:40.193Z,1024.17
2018-09-16T04:40:40.002Z,1024.18
2018-09-16T04:41:40.192Z,1024.13
2018-09-16T04:42:40.264Z,1024.13
2018-09-16T04:43:40.353Z,1024.14
2018-09-16T04:44:40.305Z,1024.15
2018-09-16T04:45:40.247Z,1024.18
2018-09-16T04:46:40.088Z,1024.16
2018-09-16T04:47:40.117Z,1024.21
2018-09-16T04:48:40.536Z,1024.14
2018-09-16T04:49:40.104Z,1024.18
2018-09-16T04:50:39.967Z,1024.18
2018-09-16T04:51:40.077Z,1024.21
2018-09-16T04:52:40.164Z,1024.14
2018-09-16T04:53:40.108Z,1024.18
2018-09-16T04:54:40.175Z,1024.17
2018-09-16T04:55:40.078Z,1024.18
2018-09-16T04:56:40.270Z,1024.11
2018-09-16T04:57:40.284Z,1024.1
2018-09-16T04:58:40.284Z,1024.13
2018-09-16T04:59:40.155Z,1024.12
2018-09-16T05:00:40.224Z,1024.18
2018-09-16T05:01:40.129Z,1024.15
2018-09-16T05:02:40.107Z,1024.15
2018-09-16T05:03:40.111Z,1024.12
2018-09-16T05:04:40.081Z,1024.22
2018-09-16T05:05:40.048Z,1024.18
2018-09-16T05:06:40.118Z,1024.15
2018-09-16T05:07:40.460Z,1024.19
2018-09-16T05:08:40.170Z,1024.15
2018-09-16T05:09:40.380Z,1024.17
2018-09-16T05:10:40.036Z,1024.14
2018-09-16T05:11:40.328Z,1024.18
2018-09-16T05:12:39.905Z,1024.12
2018-09-16T05:13:40.136Z,1024.1
2018-09-16T05:14:40.149Z,1024.11
2018-09-16T05:15:40.112Z,1024.12
2018-09-16T05:16:39.964Z,1024.14
2018-09-16T05:17:40.168Z,1024.1
2018-09-16T05:18:40.199Z,1024.12
2018-09-16T05:19:40.058Z,1024.13
2018-09-16T05:20:40.483Z,1024.12
2018-09-16T05:21:40.083Z,1024.1
2018-09-16T05:22:40.835Z,1024.15
2018-09-16T05:23:40.237Z,1024.12
2018-09-16T05:24:40.296Z,1024.12
2018-09-16T05:25:40.621Z,1024.11
2018-09-16T05:26:40.112Z,1024.14
2018-09-16T05:27:40.075Z,1024.14
2018-09-16T05:28:40.110Z,1024.15
2018-09-16T05:29:40.000Z,1024.13
2018-09-16T05:30:40.286Z,1024.09
2018-09-16T05:31:40.093Z,1024.12
2018-09-16T05:32:40.054Z,1024.1
2018-09-16T05:33:40.050Z,1024.08
2018-09-16T05:34:40.276Z,1024.09
2018-09-16T05:35:40.167Z,1024.07
2018-09-16T05:36:40.390Z,1024.1
2018-09-16T05:37:40.313Z,1024.09
2018-09-16T05:38:39.989Z,1024.11
2018-09-16T05:39:40.195Z,1024.13
2018-09-16T05:40:40.208Z,1024.14
2018-09-16T05:41:40.326Z,1024.12
2018-09-16T05:42:40.182Z,1024.07
2018-09-16T05:43:40.207Z,1024.1
2018-09-16T05:44:40.141Z,1024.08
2018-09-16T05:45:40.291Z,1024.11
2018-09-16T05:46:40.378Z,1024.14
2018-09-16T05:47:40.119Z,1024.15
2018-09-16T05:48:40.225Z,1024.15
2018-09-16T05:49:40.212Z,1024.14
2018-09-16T05:50:40.193Z,1024.09
2018-09-16T05:51:40.131Z,1024.09
2018-09-16T05:52:40.346Z,1024.11
2018-09-16T05:53:40.176Z,1024.11
2018-09-16T05:54:40.006Z,1024.13
2018-09-16T05:55:40.346Z,1024.08
2018-09-16T05:56:40.275Z,1024.14
2018-09-16T05:57:40.472Z,1024.12
2018-09-16T05:58:40.341Z,1024.11
2018-09-16T05:59:40.161Z,1024.11
2018-09-16T06:00:40.057Z,1024.06
2018-09-16T06:01:40.200Z,1024.06
2018-09-16T06:02:40.224Z,1024.05
2018-09-16T06:03:40.145Z,1024.05
2018-09-16T06:04:40.683Z,1024.07
2018-09-16T06:05:40.449Z,1024.06
2018-09-16T06:06:40.818Z,1024.08
2018-09-16T06:07:40.171Z,1024.04
2018-09-16T06:08:40.181Z,1024.06
2018-09-16T06:09:40.485Z,1024.03
2018-09-16T06:10:40.585Z,1024
2018-09-16T06:11:40.042Z,1024.08
2018-09-16T06:12:39.981Z,1024.04
2018-09-16T06:13:40.283Z,1024.03
2018-09-16T06:14:40.079Z,1024.01
2018-09-16T06:15:40.206Z,1023.99
2018-09-16T06:16:40.642Z,1024.03
2018-09-16T06:17:40.221Z,1023.95
2018-09-16T06:18:40.227Z,1023.97
2018-09-16T06:19:40.070Z,1023.91
2018-09-16T06:20:40.131Z,1023.93
2018-09-16T06:21:40.080Z,1023.89
2018-09-16T06:22:40.160Z,1023.88
2018-09-16T06:23:40.019Z,1023.86
2018-09-16T06:24:40.482Z,1023.84
2018-09-16T06:25:40.260Z,1023.88
2018-09-16T06:26:40.000Z,1023.89
2018-09-16T06:27:40.190Z,1023.87
2018-09-16T06:28:40.908Z,1023.87
2018-09-16T06:29:40.301Z,1023.88
2018-09-16T06:30:40.258Z,1023.86
2018-09-16T06:31:40.154Z,1023.85
2018-09-16T06:32:40.235Z,1023.81
2018-09-16T06:33:40.236Z,1023.87
2018-09-16T06:34:40.182Z,1023.85
2018-09-16T06:35:39.999Z,1023.83
2018-09-16T06:36:40.116Z,1023.85
2018-09-16T06:37:40.368Z,1023.89
2018-09-16T06:38:40.282Z,1023.87
2018-09-16T06:39:40.174Z,1023.89
2018-09-16T06:40:40.000Z,1023.9
2018-09-16T06:41:40.116Z,1023.89
2018-09-16T06:42:40.290Z,1023.89
2018-09-16T06:43:40.051Z,1023.9
2018-09-16T06:44:40.179Z,1023.93
2018-09-16T06:45:40.126Z,1023.85
2018-09-16T06:46:40.013Z,1023.89
2018-09-16T06:47:40.226Z,1023.82
2018-09-16T06:48:40.225Z,1023.85
2018-09-16T06:49:40.100Z,1023.83
2018-09-16T06:50:40.009Z,1023.92
2018-09-16T06:51:40.082Z,1023.88
2018-09-16T06:52:40.120Z,1023.9
2018-09-16T06:53:40.037Z,1023.95
2018-09-16T06:54:40.046Z,1023.86
2018-09-16T06:55:40.143Z,1023.91
2018-09-16T06:56:40.086Z,1023.94
2018-09-16T06:57:40.133Z,1023.91
2018-09-16T06:58:40.098Z,1023.94
2018-09-16T06:59:40.278Z,1023.92
2018-09-16T07:00:40.369Z,1023.87
2018-09-16T07:01:40.195Z,1023.92
2018-09-16T07:02:40.157Z,1023.96
2018-09-16T07:03:40.175Z,1023.99
2018-09-16T07:04:40.205Z,1023.96
2018-09-16T07:05:40.207Z,1023.95
2018-09-16T07:06:40.236Z,1023.96
2018-09-16T07:07:40.023Z,1023.98
2018-09-16T07:08:40.028Z,1024.01
2018-09-16T07:09:40.217Z,1023.98
2018-09-16T07:10:40.229Z,1023.96
2018-09-16T07:11:40.192Z,1023.95
2018-09-16T07:12:40.151Z,1023.96
2018-09-16T07:13:40.204Z,1023.99
2018-09-16T07:14:40.377Z,1024.02
2018-09-16T07:15:40.136Z,1024.05
2018-09-16T07:16:40.082Z,1024.12
2018-09-16T07:17:40.107Z,1024.11
2018-09-16T07:18:40.195Z,1024.12
2018-09-16T07:19:40.285Z,1024.15
2018-09-16T07:20:40.119Z,1024.14
2018-09-16T07:21:40.085Z,1024.2
2018-09-16T07:22:40.288Z,1024.13
2018-09-16T07:23:40.127Z,1024.19
2018-09-16T07:24:40.136Z,1024.13
2018-09-16T07:25:40.032Z,1024.16
2018-09-16T07:26:40.339Z,1024.16
2018-09-16T07:27:40.157Z,1024.13
2018-09-16T07:28:40.200Z,1024.17
2018-09-16T07:29:40.425Z,1024.17
2018-09-16T07:30:40.245Z,1024.17
2018-09-16T07:31:40.259Z,1024.2
2018-09-16T07:32:40.174Z,1024.17
2018-09-16T07:33:40.452Z,1024.19
2018-09-16T07:34:40.158Z,1024.09
2018-09-16T07:35:40.288Z,1024.07
2018-09-16T07:36:40.041Z,1024.13
2018-09-16T07:37:40.114Z,1024.11
2018-09-16T07:38:40.132Z,1024.18
2018-09-16T07:39:39.941Z,1024.09
2018-09-16T07:40:40.016Z,1024.09
2018-09-16T07:41:40.189Z,1024.16
2018-09-16T07:42:40.229Z,1024.13
2018-09-16T07:43:40.095Z,1024.07
2018-09-16T07:44:40.165Z,1024.07
2018-09-16T07:45:40.142Z,1024.08
2018-09-16T07:46:40.530Z,1024.07
2018-09-16T07:47:40.045Z,1024.08
2018-09-16T07:48:40.064Z,1024.05
2018-09-16T07:49:40.195Z,1024.11
2018-09-16T07:50:40.033Z,1024.06
2018-09-16T07:51:40.140Z,1024.1
2018-09-16T07:52:40.275Z,1024.09
2018-09-16T07:53:40.161Z,1024.09
2018-09-16T07:54:40.105Z,1024.08
2018-09-16T07:55:40.368Z,1024.03
2018-09-16T07:56:40.583Z,1024.09
2018-09-16T07:57:40.178Z,1024.09
2018-09-16T07:58:40.125Z,1024.1
2018-09-16T07:59:39.929Z,1024.09
2018-09-16T08:00:40.124Z,1024.07
2018-09-16T08:01:40.178Z,1024.11
2018-09-16T08:02:39.998Z,1024.07
2018-09-16T08:03:40.039Z,1024.07
2018-09-16T08:04:40.177Z,1024.06
2018-09-16T08:05:40.539Z,1024.09
2018-09-16T08:06:39.998Z,1024.1
2018-09-16T08:07:39.913Z,1024.05
2018-09-16T08:08:40.109Z,1024.04
2018-09-16T08:09:40.083Z,1024.07
2018-09-16T08:10:39.935Z,1024.04
2018-09-16T08:11:39.928Z,1024.04
2018-09-16T08:12:40.038Z,1024.03
2018-09-16T08:13:40.919Z,1024.06
2018-09-16T08:14:39.953Z,1024.04
2018-09-16T08:15:40.078Z,1024.06
2018-09-16T08:16:40.214Z,1024.03
2018-09-16T08:17:40.389Z,1024.1
2018-09-16T08:18:40.113Z,1024.07
2018-09-16T08:19:40.157Z,1024.1
2018-09-16T08:20:40.237Z,1024.06
2018-09-16T08:21:40.165Z,1024.08
2018-09-16T08:22:40.167Z,1024.1
2018-09-16T08:23:40.024Z,1024.1
2018-09-16T08:24:39.942Z,1024.06
2018-09-16T08:25:39.985Z,1024.08
2018-09-16T08:26:40.305Z,1024.13
2018-09-16T08:27:40.238Z,1024.08
2018-09-16T08:28:40.037Z,1024.12
2018-09-16T08:29:40.136Z,1024.11
2018-09-16T08:34:47.877Z,1024.12
2018-09-16T08:35:47.743Z,1024.17
2018-09-16T08:36:47.724Z,1024.1
2018-09-16T08:37:48.051Z,1024.09
2018-09-16T08:38:47.554Z,1024.12
2018-09-16T08:39:47.781Z,1024.1
2018-09-16T08:40:47.707Z,1024.1
2018-09-16T08:41:48.079Z,1024.11
2018-09-16T08:42:47.904Z,1024.09
2018-09-16T08:43:47.960Z,1024.08
2018-09-16T08:45:20.470Z,1024.04
2018-09-16T08:46:20.377Z,1024
2018-09-16T08:47:20.565Z,1023.98
2018-09-16T08:48:20.549Z,1024.01
2018-09-16T08:49:20.749Z,1023.96
2018-09-16T08:51:06.287Z,1023.97
2018-09-16T08:52:18.961Z,1023.95
2018-09-16T08:53:19.124Z,1023.93
2018-09-16T08:54:19.050Z,1023.91
2018-09-16T08:55:09.775Z,1023.97
2018-09-16T08:56:09.707Z,1023.87
2018-09-16T08:57:28.941Z,1023.86
2018-09-16T08:58:29.745Z,1023.87
2018-09-16T09:02:31.972Z,1023.84
2018-09-16T09:03:32.012Z,1023.8
2018-09-16T09:04:31.917Z,1023.83
2018-09-16T09:05:32.151Z,1023.81
2018-09-16T09:06:32.108Z,1023.84
2018-09-16T09:08:07.744Z,1023.81
2018-09-16T09:14:52.670Z,1023.79
2018-09-16T09:16:03.270Z,1023.78
2018-09-16T09:17:03.401Z,1023.75
2018-09-16T09:18:03.411Z,1023.76
2018-09-16T09:19:03.213Z,1023.74
2018-09-16T09:20:03.258Z,1023.73
2018-09-16T09:21:03.268Z,1023.69
2018-09-16T09:22:03.167Z,1023.62
2018-09-16T09:23:03.411Z,1023.64
2018-09-16T09:24:03.089Z,1023.66
2018-09-16T09:25:03.222Z,1023.63
2018-09-16T09:26:03.220Z,1023.68
2018-09-16T09:26:45.277Z,1023.61
2018-09-16T09:27:45.029Z,1023.59
2018-09-16T09:28:45.144Z,1023.57
2018-09-16T09:29:45.273Z,1023.6
2018-09-16T09:30:45.131Z,1023.53
2018-09-16T09:33:45.178Z,1023.46
2018-09-16T09:34:45.210Z,1023.51
2018-09-16T09:35:45.774Z,1023.45
2018-09-16T09:39:45.365Z,1023.45
2018-09-16T09:40:45.688Z,1023.44
2018-09-16T09:41:45.538Z,1023.45
2018-09-16T09:42:45.655Z,1023.4
2018-09-16T09:44:20.126Z,1023.38
2018-09-16T09:44:50.904Z,1023.43
2018-09-16T09:45:36.259Z,1023.35
2018-09-16T09:46:36.329Z,1023.3
2018-09-16T09:47:36.612Z,1023.33
2018-09-16T09:48:36.276Z,1023.34
2018-09-16T09:49:36.534Z,1023.28
2018-09-16T09:50:36.523Z,1023.3
2018-09-16T09:51:36.372Z,1023.3
2018-09-16T09:52:36.198Z,1023.3
2018-09-16T09:53:36.278Z,1023.31
2018-09-16T09:54:36.313Z,1023.29
2018-09-16T09:55:36.541Z,1023.24
2018-09-16T09:56:36.114Z,1023.21
2018-09-16T09:57:36.218Z,1023.17
2018-09-16T09:58:36.198Z,1023.19
2018-09-16T09:59:36.221Z,1023.12
2018-09-16T10:00:36.198Z,1023.11
2018-09-16T10:01:36.341Z,1023.08
2018-09-16T10:02:36.128Z,1023.08
2018-09-16T10:03:36.428Z,1023.1
2018-09-16T10:04:36.284Z,1023.04
2018-09-16T10:05:36.107Z,1023.03
2018-09-16T10:06:36.434Z,1022.99
2018-09-16T10:07:36.230Z,1022.93
2018-09-16T10:08:36.332Z,1022.92
2018-09-16T10:09:36.301Z,1022.87
2018-09-16T10:10:36.177Z,1022.86
2018-09-16T10:11:36.258Z,1022.86
2018-09-16T10:12:36.141Z,1022.87
2018-09-16T10:13:36.170Z,1022.79
2018-09-16T10:14:36.299Z,1022.79
2018-09-16T10:15:36.309Z,1022.81
2018-09-16T10:16:36.257Z,1022.82
2018-09-16T10:17:36.157Z,1022.8
2018-09-16T10:18:36.248Z,1022.8
2018-09-16T10:19:36.274Z,1022.77
2018-09-16T10:20:36.323Z,1022.73
2018-09-16T10:21:36.513Z,1022.73
2018-09-16T10:22:36.577Z,1022.67
2018-09-16T10:23:36.685Z,1022.66
2018-09-16T10:24:36.815Z,1022.64
2018-09-16T10:25:36.244Z,1022.63
2018-09-16T10:26:13.701Z,1022.64
2018-09-16T10:27:13.516Z,1022.61
2018-09-16T10:27:46.872Z,1022.63
2018-09-16T10:28:47.344Z,1022.53
2018-09-16T10:29:46.799Z,1022.58
2018-09-16T10:30:46.794Z,1022.59
2018-09-16T10:31:47.301Z,1022.6
2018-09-16T10:32:47.387Z,1022.63
2018-09-16T10:33:47.046Z,1022.59
2018-09-16T10:34:46.940Z,1022.58
2018-09-16T10:35:46.927Z,1022.61
2018-09-16T10:36:47.338Z,1022.62
2018-09-16T10:37:46.755Z,1022.61
2018-09-16T10:38:47.701Z,1022.63
2018-09-16T10:39:47.385Z,1022.57
2018-09-16T10:40:47.477Z,1022.56
2018-09-16T10:41:46.810Z,1022.57
2018-09-16T10:42:47.131Z,1022.52
2018-09-16T10:43:47.050Z,1022.51
2018-09-16T10:44:47.295Z,1022.48
2018-09-16T10:45:46.977Z,1022.44
2018-09-16T10:46:47.207Z,1022.47
2018-09-16T10:47:46.829Z,1022.43
2018-09-16T10:48:46.861Z,1022.47
2018-09-16T10:49:46.740Z,1022.43
2018-09-16T10:50:46.766Z,1022.45
2018-09-16T10:51:46.742Z,1022.4
2018-09-16T10:52:46.947Z,1022.42
2018-09-16T10:53:47.105Z,1022.42
2018-09-16T10:54:47.788Z,1022.39
2018-09-16T10:55:47.296Z,1022.38
2018-09-16T10:56:46.883Z,1022.36
2018-09-16T10:57:47.212Z,1022.34
2018-09-16T10:58:46.711Z,1022.36
2018-09-16T10:59:47.101Z,1022.34
2018-09-16T11:00:46.765Z,1022.29
2018-09-16T11:01:46.816Z,1022.35
2018-09-16T11:02:46.779Z,1022.3
2018-09-16T11:03:46.922Z,1022.3
2018-09-16T11:04:46.826Z,1022.32
2018-09-16T11:05:46.983Z,1022.3
2018-09-16T11:06:47.018Z,1022.35
2018-09-16T11:07:47.176Z,1022.26
2018-09-16T11:08:46.897Z,1022.25
2018-09-16T11:09:46.800Z,1022.16
2018-09-16T11:10:46.687Z,1022.14
2018-09-16T11:11:47.013Z,1022.15
2018-09-16T11:12:46.756Z,1022.13
2018-09-16T11:13:46.948Z,1022.09
2018-09-16T11:14:46.709Z,1022.12
2018-09-16T11:15:47.701Z,1022.07
2018-09-16T11:16:47.182Z,1022.08
2018-09-16T11:17:46.951Z,1022.03
2018-09-16T11:18:46.764Z,1022.04
2018-09-16T11:19:46.808Z,1022.06
2018-09-16T11:20:46.727Z,1022.07
2018-09-16T11:21:47.348Z,1021.99
2018-09-16T11:22:46.934Z,1022.04
2018-09-16T11:23:46.967Z,1021.99
2018-09-16T11:24:46.990Z,1022
2018-09-16T11:25:46.962Z,1022.01
2018-09-16T11:26:46.670Z,1021.94
2018-09-16T11:27:46.861Z,1021.91
2018-09-16T11:28:46.966Z,1021.89
2018-09-16T11:29:46.874Z,1021.88
2018-09-16T11:30:46.812Z,1021.9
2018-09-16T11:31:47.049Z,1021.9
2018-09-16T11:32:46.684Z,1021.87
2018-09-16T11:33:46.987Z,1021.83
2018-09-16T11:34:47.833Z,1021.87
2018-09-16T11:35:46.814Z,1021.83
2018-09-16T11:36:47.249Z,1021.82
2018-09-16T11:37:46.929Z,1021.86
2018-09-16T11:38:47.626Z,1021.75
2018-09-16T11:39:47.221Z,1021.79
2018-09-16T11:40:46.728Z,1021.76
2018-09-16T11:41:46.651Z,1021.8
2018-09-16T11:42:46.756Z,1021.77
2018-09-16T11:43:46.793Z,1021.78
2018-09-16T11:44:46.763Z,1021.8
2018-09-16T11:45:46.870Z,1021.71
2018-09-16T11:46:46.738Z,1021.75
2018-09-16T11:47:46.825Z,1021.74
2018-09-16T11:48:47.302Z,1021.77
2018-09-16T11:49:47.050Z,1021.73
2018-09-16T11:50:46.858Z,1021.74
2018-09-16T11:51:47.280Z,1021.76
2018-09-16T11:52:47.062Z,1021.72
2018-09-16T11:53:46.903Z,1021.69
2018-09-16T11:54:46.900Z,1021.73
2018-09-16T11:55:47.040Z,1021.72
2018-09-16T11:56:46.828Z,1021.74
2018-09-16T11:57:46.990Z,1021.73
2018-09-16T11:58:47.021Z,1021.71
2018-09-16T11:59:46.750Z,1021.69
2018-09-16T12:00:47.092Z,1021.7
2018-09-16T12:01:46.817Z,1021.76
2018-09-16T12:02:47.836Z,1021.71
2018-09-16T12:03:47.025Z,1021.7
2018-09-16T12:04:46.919Z,1021.68
2018-09-16T12:05:47.406Z,1021.68
2018-09-16T12:06:46.705Z,1021.74
2018-09-16T12:07:47.049Z,1021.72
2018-09-16T12:08:46.813Z,1021.75
2018-09-16T12:09:46.942Z,1021.78
2018-09-16T12:10:46.789Z,1021.81
2018-09-16T12:11:47.166Z,1021.76
2018-09-16T12:12:46.736Z,1021.73
2018-09-16T12:13:46.687Z,1021.75
2018-09-16T12:14:46.818Z,1021.76
2018-09-16T12:15:46.806Z,1021.69
2018-09-16T12:16:46.708Z,1021.71
2018-09-16T12:17:47.685Z,1021.67
2018-09-16T12:18:46.787Z,1021.7
2018-09-16T12:19:46.747Z,1021.74
2018-09-16T12:20:46.727Z,1021.73
2018-09-16T12:21:47.196Z,1021.68
2018-09-16T12:22:46.709Z,1021.69
2018-09-16T12:23:46.881Z,1021.65
2018-09-16T12:24:46.780Z,1021.65
2018-09-16T12:25:47.042Z,1021.57
2018-09-16T12:26:47.067Z,1021.57
2018-09-16T12:27:46.941Z,1021.51